Oak Island, Minnesota
Current Conditions -  °F | °C
As of 3:34 AM on Saturday 29 Nov 2014 (Local Time) from KFGN Reporting Station
Overcast Overcast  
Wind Chill:   Ceiling: 1600
Heat Index: 18°   Visibility: 10mi
Dew Point: 14°   Wind: 10mph
Humidity: 86%   Direction: 150°SSE
Pressure: 29.53"   Gusts: NA
Location:  49.3°N, 94.86°W
Report Text: KFGN 290934Z AUTO 15009KT 10SM OVC016 M08/M10 A2953 RMK AO2
Loading
Personal Weather Stations






























Interactive Weather Map New forecast layout! Learn more

10-Day Weather Forecast

Advertisements
Track Severe Weather on mobile